createdAt,value
2022-10-05T00:00:47.128Z,80.42
2022-10-05T00:03:16.429Z,80.78
2022-10-05T00:05:47.586Z,81.09
2022-10-05T00:08:20.901Z,81.26
2022-10-05T00:10:50.745Z,81.24
2022-10-05T00:13:24.071Z,82.53
2022-10-05T00:15:59.318Z,82.76
2022-10-05T00:18:28.862Z,83.29
2022-10-05T00:20:58.192Z,83.57
2022-10-05T00:23:33.915Z,83.89
2022-10-05T00:26:12.669Z,84.47
2022-10-05T00:28:43.258Z,85.61
2022-10-05T00:31:20.963Z,86.13
2022-10-05T00:33:50.835Z,86.24
2022-10-05T00:36:20.427Z,86.94
2022-10-05T00:38:49.694Z,86.99
2022-10-05T00:41:25.544Z,87.73
2022-10-05T00:44:29.222Z,89.03
2022-10-05T00:47:04.193Z,88.94
2022-10-05T00:50:10.734Z,88.30
2022-10-05T00:52:52.929Z,87.97
2022-10-05T00:55:33.412Z,88.35
2022-10-05T00:58:18.452Z,88.56
2022-10-05T01:01:01.633Z,88.40
2022-10-05T01:03:41.063Z,88.28
2022-10-05T01:06:22.630Z,88.81
2022-10-05T01:09:04.011Z,88.50
2022-10-05T01:11:42.658Z,88.63
2022-10-05T01:14:20.403Z,88.23
2022-10-05T01:16:58.478Z,87.68
2022-10-05T01:20:06.516Z,88.47
2022-10-05T01:22:56.646Z,88.14
2022-10-05T01:25:32.126Z,88.61
2022-10-05T01:28:10.897Z,88.53
2022-10-05T01:30:49.570Z,88.89
2022-10-05T01:33:26.738Z,89.30
2022-10-05T01:36:04.394Z,85.26
2022-10-05T01:38:46.359Z,85.00
2022-10-05T01:41:27.750Z,84.88
2022-10-05T01:44:04.508Z,84.94
2022-10-05T01:46:44.604Z,85.54
2022-10-05T01:49:35.068Z,85.58
2022-10-05T01:52:25.339Z,85.74
2022-10-05T01:55:08.645Z,85.49
2022-10-05T01:57:55.559Z,86.13
2022-10-05T02:00:28.430Z,86.07
2022-10-05T02:03:06.048Z,85.77
2022-10-05T02:05:42.345Z,86.00
2022-10-05T02:08:16.835Z,85.78
2022-10-05T02:10:52.660Z,85.41
2022-10-05T02:13:31.414Z,85.60
2022-10-05T02:16:05.672Z,85.90
2022-10-05T02:18:45.235Z,85.74
2022-10-05T02:21:15.406Z,85.91
2022-10-05T02:23:47.600Z,86.30
2022-10-05T02:26:18.026Z,86.28
2022-10-05T02:28:53.668Z,86.31
2022-10-05T02:31:30.579Z,86.19
2022-10-05T02:34:38.633Z,86.25
2022-10-05T02:37:39.410Z,86.25
2022-10-05T02:40:23.372Z,86.42
2022-10-05T02:43:06.762Z,86.23
2022-10-05T02:45:45.690Z,86.64
2022-10-05T02:48:25.168Z,86.81
2022-10-05T02:51:04.976Z,86.97
2022-10-05T02:53:45.186Z,87.30
2022-10-05T02:56:27.580Z,87.56
2022-10-05T02:59:09.546Z,87.04
2022-10-05T03:01:48.621Z,87.62
2022-10-05T03:04:30.668Z,87.51
2022-10-05T03:07:13.514Z,87.29
2022-10-05T03:09:55.711Z,87.41
2022-10-05T03:12:48.827Z,87.75
2022-10-05T03:15:43.905Z,87.64
2022-10-05T03:18:26.344Z,87.50
2022-10-05T03:21:14.343Z,88.05
2022-10-05T03:24:03.825Z,87.99
2022-10-05T03:26:45.408Z,88.03
2022-10-05T03:29:31.424Z,87.77
2022-10-05T03:32:14.485Z,87.15
2022-10-05T03:34:52.009Z,86.50
2022-10-05T03:37:29.855Z,86.41
2022-10-05T03:40:07.585Z,86.64
2022-10-05T03:42:53.081Z,86.46
2022-10-05T03:45:29.823Z,86.19
2022-10-05T03:48:09.794Z,85.76
2022-10-05T03:50:51.106Z,85.82
2022-10-05T03:53:24.690Z,85.28
2022-10-05T03:56:03.126Z,85.32
2022-10-05T03:58:42.334Z,84.66
2022-10-05T04:01:18.569Z,85.13
2022-10-05T04:03:52.921Z,85.47
2022-10-05T04:06:26.852Z,85.38
2022-10-05T04:09:04.049Z,84.99
2022-10-05T04:11:39.450Z,84.91
2022-10-05T04:14:19.064Z,84.18
2022-10-05T04:16:56.227Z,84.60
2022-10-05T04:19:32.802Z,84.64
2022-10-05T04:22:11.195Z,84.77
2022-10-05T04:24:49.835Z,84.91
2022-10-05T04:27:23.437Z,85.16
2022-10-05T04:30:02.098Z,84.62
2022-10-05T04:32:40.137Z,85.05
2022-10-05T04:35:46.546Z,84.92
2022-10-05T04:38:48.323Z,84.33
2022-10-05T04:41:43.283Z,84.29
2022-10-05T04:44:43.377Z,83.90
2022-10-05T04:47:45.878Z,83.63
2022-10-05T04:50:30.166Z,83.16
2022-10-05T04:53:22.565Z,83.25
2022-10-05T04:55:59.352Z,83.04
2022-10-05T04:58:57.297Z,82.95
2022-10-05T05:01:51.491Z,83.49
2022-10-05T05:04:53.184Z,83.24
2022-10-05T05:07:41.409Z,83.67
2022-10-05T05:10:54.617Z,83.47
2022-10-05T05:14:17.905Z,83.81
2022-10-05T05:16:53.878Z,83.84
2022-10-05T05:19:40.777Z,83.45
2022-10-05T05:22:25.007Z,83.72
2022-10-05T05:25:20.115Z,83.59
2022-10-05T05:27:56.100Z,83.63
2022-10-05T05:30:40.868Z,82.61
2022-10-05T05:33:23.569Z,83.28
2022-10-05T05:36:42.925Z,83.18
2022-10-05T05:39:29.002Z,83.44
2022-10-05T05:42:07.946Z,83.04
2022-10-05T05:44:44.452Z,83.54
2022-10-05T05:47:21.802Z,83.56
2022-10-05T05:50:13.981Z,84.04
2022-10-05T05:52:48.197Z,83.75
2022-10-05T05:55:29.764Z,84.23
2022-10-05T05:58:06.019Z,84.07
2022-10-05T06:00:44.300Z,83.87
2022-10-05T06:03:20.441Z,83.98
2022-10-05T06:05:54.209Z,84.22
2022-10-05T06:08:34.905Z,83.77
2022-10-05T06:11:19.050Z,84.13
2022-10-05T06:13:49.329Z,83.90
2022-10-05T06:16:24.604Z,84.46
2022-10-05T06:19:00.522Z,84.34
2022-10-05T06:21:37.047Z,84.03
2022-10-05T06:24:16.471Z,83.96
2022-10-05T06:27:36.729Z,84.35
2022-10-05T06:30:13.177Z,84.11
2022-10-05T06:33:09.870Z,84.09
2022-10-05T06:36:03.273Z,83.88
2022-10-05T06:39:03.183Z,83.79
2022-10-05T06:41:47.656Z,83.66
2022-10-05T06:44:23.462Z,83.31
2022-10-05T06:47:18.103Z,83.25
2022-10-05T06:50:21.735Z,83.73
2022-10-05T06:53:27.307Z,83.60
2022-10-05T06:56:05.395Z,83.35
2022-10-05T06:58:58.010Z,83.27
2022-10-05T07:01:45.752Z,83.20
2022-10-05T07:04:42.943Z,83.11
2022-10-05T07:07:23.807Z,82.35
2022-10-05T07:10:10.271Z,82.44
2022-10-05T07:12:55.644Z,82.00
2022-10-05T07:15:40.206Z,82.00
2022-10-05T07:18:51.697Z,81.75
2022-10-05T07:21:34.526Z,81.78
2022-10-05T07:24:21.942Z,81.87
2022-10-05T07:27:05.004Z,82.06
2022-10-05T07:29:42.169Z,81.89
2022-10-05T07:32:28.316Z,81.96
2022-10-05T07:35:08.913Z,82.42
2022-10-05T07:37:57.336Z,82.30
2022-10-05T07:40:39.384Z,82.37
2022-10-05T07:43:45.332Z,82.32
2022-10-05T07:46:33.390Z,82.32
2022-10-05T07:49:09.000Z,81.70
2022-10-05T07:51:42.204Z,81.92
2022-10-05T07:54:21.793Z,81.70
2022-10-05T07:56:59.885Z,82.00
2022-10-05T07:59:37.488Z,81.92
2022-10-05T08:02:20.453Z,82.19
2022-10-05T08:05:00.764Z,82.34
2022-10-05T08:07:33.040Z,82.38
2022-10-05T08:10:17.974Z,82.40
2022-10-05T08:13:01.520Z,82.29
2022-10-05T08:15:39.481Z,82.79
2022-10-05T08:18:20.743Z,82.58
2022-10-05T08:20:53.800Z,82.06
2022-10-05T08:23:36.108Z,82.37
2022-10-05T08:26:17.744Z,82.25
2022-10-05T08:28:55.577Z,81.61
2022-10-05T08:31:30.173Z,81.52
2022-10-05T08:34:20.193Z,81.97
2022-10-05T08:37:03.265Z,81.30
2022-10-05T08:39:38.539Z,81.17
2022-10-05T08:43:03.047Z,80.57
2022-10-05T08:46:07.020Z,80.71
2022-10-05T08:49:19.995Z,80.62
2022-10-05T08:52:26.002Z,80.63
2022-10-05T08:55:45.859Z,80.65
2022-10-05T08:58:54.947Z,80.71
2022-10-05T09:01:36.743Z,80.41
2022-10-05T09:04:46.076Z,80.38
2022-10-05T09:07:36.674Z,80.65
2022-10-05T09:10:45.119Z,80.03
2022-10-05T09:14:04.034Z,80.86
2022-10-05T09:16:56.041Z,80.67
2022-10-05T09:20:16.612Z,80.83
2022-10-05T09:23:15.126Z,81.31
2022-10-05T09:25:58.850Z,81.93
2022-10-05T09:28:40.356Z,81.97
2022-10-05T09:31:40.995Z,81.26
2022-10-05T09:35:00.175Z,81.42
2022-10-05T09:37:53.810Z,80.54
2022-10-05T09:41:16.596Z,80.11
2022-10-05T09:44:50.265Z,79.85
2022-10-05T09:47:53.968Z,79.81
2022-10-05T09:51:45.986Z,80.26
2022-10-05T09:55:35.806Z,80.00
2022-10-05T09:58:58.579Z,79.63
2022-10-05T10:01:46.540Z,79.63
2022-10-05T10:04:35.467Z,78.88
2022-10-05T10:07:50.319Z,78.89
2022-10-05T10:10:56.445Z,77.95
2022-10-05T10:14:18.590Z,76.89
2022-10-05T10:17:37.963Z,76.61
2022-10-05T10:20:31.046Z,77.01
2022-10-05T10:23:24.539Z,77.30
2022-10-05T10:26:27.541Z,76.93
2022-10-05T10:29:49.073Z,76.25
2022-10-05T10:32:57.010Z,74.77
2022-10-05T10:35:36.018Z,74.20
2022-10-05T10:38:41.441Z,73.98
2022-10-05T10:41:52.467Z,73.58
2022-10-05T10:45:29.822Z,70.67
2022-10-05T10:48:05.077Z,70.35
2022-10-05T10:51:18.667Z,69.37
2022-10-05T10:54:12.695Z,67.96
2022-10-05T10:57:04.526Z,68.18
2022-10-05T11:00:19.787Z,68.43
2022-10-05T11:03:32.780Z,69.17
2022-10-05T11:06:29.155Z,69.41
2022-10-05T11:09:44.528Z,70.52
2022-10-05T11:13:00.519Z,69.67
2022-10-05T11:15:54.680Z,66.03
2022-10-05T11:18:40.508Z,63.42
2022-10-05T11:21:36.584Z,60.17
2022-10-05T11:24:48.638Z,59.80
2022-10-05T11:27:56.470Z,58.61
2022-10-05T11:30:55.551Z,59.14
2022-10-05T11:34:15.903Z,59.18
2022-10-05T11:37:26.386Z,58.27
2022-10-05T11:40:34.430Z,58.22
2022-10-05T11:43:41.839Z,57.70
2022-10-05T11:46:20.443Z,57.73
2022-10-05T11:49:15.157Z,57.33
2022-10-05T11:51:54.001Z,58.28
2022-10-05T11:55:11.653Z,58.21
2022-10-05T11:57:52.934Z,57.00
2022-10-05T12:00:26.278Z,55.91
2022-10-05T12:03:20.370Z,51.54
2022-10-05T12:06:23.557Z,48.76
2022-10-05T12:09:07.552Z,46.13
2022-10-05T12:12:03.160Z,45.83
2022-10-05T12:14:50.696Z,44.78
2022-10-05T12:17:30.246Z,43.85
2022-10-05T12:20:03.480Z,44.08
2022-10-05T12:22:39.603Z,43.73
2022-10-05T12:25:26.835Z,43.79
2022-10-05T12:28:03.713Z,43.20
2022-10-05T12:30:58.609Z,42.91
2022-10-05T12:33:36.064Z,41.85
2022-10-05T12:36:13.265Z,42.36
2022-10-05T12:38:52.620Z,40.26
2022-10-05T12:41:26.933Z,40.78
2022-10-05T12:44:18.381Z,42.85
2022-10-05T12:47:05.635Z,43.62
2022-10-05T12:50:10.621Z,46.04
2022-10-05T12:52:57.261Z,47.30
2022-10-05T12:55:35.308Z,48.45
2022-10-05T12:58:22.130Z,49.32
2022-10-05T13:01:02.469Z,51.96
2022-10-05T13:03:41.744Z,54.78
2022-10-05T13:06:21.815Z,56.30
2022-10-05T13:08:58.029Z,59.76
2022-10-05T13:11:38.663Z,63.62
2022-10-05T13:14:22.175Z,65.16
2022-10-05T13:16:59.508Z,68.66
2022-10-05T13:19:40.530Z,68.36
2022-10-05T13:22:33.763Z,70.16
2022-10-05T13:25:19.838Z,70.96
2022-10-05T13:28:06.481Z,71.41
2022-10-05T13:30:37.028Z,72.40
2022-10-05T13:33:18.036Z,73.53
2022-10-05T13:35:54.307Z,72.84
2022-10-05T13:38:44.882Z,72.44
2022-10-05T13:41:27.310Z,73.60
2022-10-05T13:44:10.582Z,70.44
2022-10-05T13:46:48.506Z,67.62
2022-10-05T13:49:27.076Z,64.44
2022-10-05T13:52:04.347Z,63.28
2022-10-05T13:54:44.107Z,60.79
2022-10-05T13:57:30.086Z,56.30
2022-10-05T14:00:03.082Z,54.19
2022-10-05T14:02:44.749Z,52.35
2022-10-05T14:05:21.567Z,52.44
2022-10-05T14:07:58.592Z,50.50
2022-10-05T14:10:39.289Z,50.42
2022-10-05T14:13:27.503Z,50.40
2022-10-05T14:16:19.284Z,50.20
2022-10-05T14:19:12.353Z,48.86
2022-10-05T14:21:50.919Z,49.16
2022-10-05T14:24:42.279Z,48.82
2022-10-05T14:27:24.372Z,49.32
2022-10-05T14:30:00.925Z,50.64
2022-10-05T14:32:44.496Z,51.68
2022-10-05T14:35:16.793Z,53.68
2022-10-05T14:37:52.247Z,55.12
2022-10-05T14:40:30.499Z,56.47
2022-10-05T14:43:18.639Z,58.66
2022-10-05T14:45:57.641Z,60.76
2022-10-05T14:48:29.117Z,60.85
2022-10-05T14:51:03.427Z,59.58
2022-10-05T14:53:41.885Z,56.09
2022-10-05T14:56:47.440Z,53.38
2022-10-05T14:59:43.664Z,52.98
2022-10-05T15:02:55.681Z,52.30
2022-10-05T15:05:32.666Z,52.66
2022-10-05T15:08:21.297Z,52.91
2022-10-05T15:10:57.840Z,52.58
2022-10-05T15:13:33.297Z,54.13
2022-10-05T15:16:13.076Z,53.60
2022-10-05T15:18:50.114Z,53.72
2022-10-05T15:21:46.322Z,54.45
2022-10-05T15:24:21.516Z,54.67
2022-10-05T15:26:54.563Z,54.96
2022-10-05T15:29:54.996Z,55.67
2022-10-05T15:32:44.512Z,55.80
2022-10-05T15:35:55.519Z,55.38
2022-10-05T15:38:26.803Z,54.58
2022-10-05T15:41:14.912Z,53.77
2022-10-05T15:44:06.562Z,53.27
2022-10-05T15:46:47.914Z,53.51
2022-10-05T15:49:29.288Z,54.36
2022-10-05T15:52:07.479Z,53.20
2022-10-05T15:55:22.206Z,52.61
2022-10-05T15:58:08.469Z,52.95
2022-10-05T16:00:45.976Z,52.88
2022-10-05T16:03:26.905Z,52.94
2022-10-05T16:06:24.097Z,53.79
2022-10-05T16:09:14.162Z,53.94
2022-10-05T16:12:03.399Z,54.40
2022-10-05T16:14:55.078Z,54.73
2022-10-05T16:17:48.085Z,54.91
2022-10-05T16:20:36.919Z,55.13
2022-10-05T16:23:19.793Z,56.23
2022-10-05T16:25:59.538Z,56.09
2022-10-05T16:28:47.544Z,56.18
2022-10-05T16:31:23.341Z,56.89
2022-10-05T16:34:06.678Z,57.45
2022-10-05T16:36:53.234Z,57.25
2022-10-05T16:39:52.800Z,57.63
2022-10-05T16:42:46.422Z,57.54
2022-10-05T16:45:30.790Z,57.96
2022-10-05T16:48:09.735Z,58.52
2022-10-05T16:50:50.486Z,59.29
2022-10-05T16:53:24.265Z,59.93
2022-10-05T16:56:01.907Z,60.03
2022-10-05T16:58:46.239Z,60.30
2022-10-05T17:01:37.277Z,59.97
2022-10-05T17:04:23.734Z,60.13
2022-10-05T17:07:23.808Z,59.66
2022-10-05T17:10:41.150Z,60.04
2022-10-05T17:13:36.379Z,59.69
2022-10-05T17:16:14.948Z,59.71
2022-10-05T17:19:16.329Z,58.60
2022-10-05T17:22:00.534Z,58.02
2022-10-05T17:24:50.628Z,57.84
2022-10-05T17:27:32.876Z,57.93
2022-10-05T17:30:46.675Z,58.62
2022-10-05T17:33:27.529Z,59.20
2022-10-05T17:36:20.521Z,59.09
2022-10-05T17:39:12.312Z,59.44
2022-10-05T17:41:41.621Z,59.57
2022-10-05T17:44:26.445Z,60.03
2022-10-05T17:47:14.173Z,60.50
2022-10-05T17:50:17.598Z,60.92
2022-10-05T17:53:23.894Z,60.16
2022-10-05T17:56:05.865Z,60.79
2022-10-05T17:59:00.729Z,61.02
2022-10-05T18:01:33.953Z,61.26
2022-10-05T18:04:42.884Z,62.17
2022-10-05T18:07:25.105Z,62.45
2022-10-05T18:10:20.162Z,63.15
2022-10-05T18:12:52.897Z,63.60
2022-10-05T18:15:48.938Z,64.07
2022-10-05T18:18:57.425Z,63.95
2022-10-05T18:21:38.798Z,65.05
2022-10-05T18:24:53.246Z,65.19
2022-10-05T18:27:48.155Z,65.72
2022-10-05T18:30:23.261Z,66.14
2022-10-05T18:33:40.501Z,66.10
2022-10-05T18:36:40.002Z,66.23
2022-10-05T18:39:25.158Z,66.28
2022-10-05T18:42:11.927Z,66.31
2022-10-05T18:44:46.607Z,66.29
2022-10-05T18:47:25.992Z,66.70
2022-10-05T18:50:27.236Z,66.84
2022-10-05T18:53:20.749Z,66.77
2022-10-05T18:55:59.153Z,66.75
2022-10-05T18:58:40.259Z,66.89
2022-10-05T19:01:54.266Z,66.56
2022-10-05T19:04:37.262Z,66.45
2022-10-05T19:07:14.253Z,67.12
2022-10-05T19:10:04.540Z,66.92
2022-10-05T19:12:47.944Z,66.79
2022-10-05T19:15:28.373Z,66.71
2022-10-05T19:18:41.761Z,67.13
2022-10-05T19:21:26.692Z,66.68
2022-10-05T19:24:26.786Z,67.52
2022-10-05T19:27:07.942Z,66.60
2022-10-05T19:29:55.570Z,66.72
2022-10-05T19:32:34.942Z,66.77
2022-10-05T19:35:22.338Z,66.89
2022-10-05T19:38:06.087Z,66.65
2022-10-05T19:40:44.787Z,67.46
2022-10-05T19:43:38.004Z,67.50
2022-10-05T19:46:19.025Z,68.44
2022-10-05T19:48:54.232Z,67.80
2022-10-05T19:51:30.685Z,68.44
2022-10-05T19:54:04.161Z,68.72
2022-10-05T19:56:35.929Z,68.80
2022-10-05T19:59:20.116Z,69.29
2022-10-05T20:01:53.902Z,69.33
2022-10-05T20:04:42.126Z,69.54
2022-10-05T20:07:15.319Z,69.27
2022-10-05T20:09:58.506Z,69.70
2022-10-05T20:12:52.545Z,69.66
2022-10-05T20:15:43.408Z,69.66
2022-10-05T20:18:57.165Z,70.17
2022-10-05T20:21:46.738Z,70.13
2022-10-05T20:24:19.103Z,70.69
2022-10-05T20:27:05.465Z,70.77
2022-10-05T20:29:37.735Z,71.01
2022-10-05T20:32:12.295Z,71.19
2022-10-05T20:34:43.569Z,70.62
2022-10-05T20:37:15.438Z,70.27
2022-10-05T20:39:47.327Z,70.21
2022-10-05T20:42:16.876Z,70.12
2022-10-05T20:44:47.097Z,69.75
2022-10-05T20:47:17.894Z,69.99
2022-10-05T20:49:47.326Z,70.16
2022-10-05T20:52:16.478Z,70.40
2022-10-05T20:57:24.546Z,70.17
2022-10-05T20:59:53.736Z,70.06
2022-10-05T21:02:24.378Z,69.84
2022-10-05T21:04:53.666Z,69.97
2022-10-05T21:07:23.543Z,69.71
2022-10-05T21:09:55.772Z,69.81
2022-10-05T21:12:25.611Z,69.94
2022-10-05T21:14:55.047Z,69.91
2022-10-05T21:17:25.855Z,69.91
2022-10-05T21:19:55.605Z,69.96
2022-10-05T21:22:26.200Z,69.70
2022-10-05T21:24:56.039Z,69.28
2022-10-05T21:27:25.182Z,68.69
2022-10-05T21:29:54.536Z,68.22
2022-10-05T21:32:25.146Z,68.05
2022-10-05T21:34:54.616Z,67.70
2022-10-05T21:37:23.786Z,67.64
2022-10-05T21:39:53.006Z,67.61
2022-10-05T21:42:23.593Z,67.23
2022-10-05T21:44:52.834Z,66.99
2022-10-05T21:47:22.045Z,66.71
2022-10-05T21:49:52.607Z,66.59
2022-10-05T21:52:22.150Z,66.35
2022-10-05T21:54:51.392Z,66.50
2022-10-05T21:57:20.500Z,66.75
2022-10-05T21:59:50.462Z,67.07
2022-10-05T22:02:19.625Z,66.79
2022-10-05T22:04:48.778Z,67.87
2022-10-05T22:07:21.254Z,68.22
2022-10-05T22:09:51.081Z,68.27
2022-10-05T22:12:21.217Z,68.59
2022-10-05T22:14:50.731Z,68.35
2022-10-05T22:17:24.485Z,68.99
2022-10-05T22:19:54.922Z,68.79
2022-10-05T22:22:26.292Z,68.45
2022-10-05T22:24:56.450Z,68.09
2022-10-05T22:27:29.558Z,68.30
2022-10-05T22:29:59.607Z,68.18
2022-10-05T22:32:28.969Z,68.34
2022-10-05T22:34:58.309Z,67.79
2022-10-05T22:37:28.952Z,68.00
2022-10-05T22:39:58.332Z,67.99
2022-10-05T22:42:27.484Z,67.45
2022-10-05T22:44:56.716Z,67.53
2022-10-05T22:47:25.979Z,67.69
2022-10-05T22:49:55.274Z,68.15
2022-10-05T22:52:24.862Z,68.15
2022-10-05T22:54:55.569Z,68.28
2022-10-05T22:57:24.874Z,68.15
2022-10-05T22:59:54.003Z,68.68
2022-10-05T23:02:23.151Z,68.91
2022-10-05T23:04:52.264Z,68.84
2022-10-05T23:07:21.383Z,68.87
2022-10-05T23:09:50.536Z,69.14
2022-10-05T23:12:21.126Z,69.61
2022-10-05T23:14:50.273Z,69.46
2022-10-05T23:17:21.929Z,70.27
2022-10-05T23:19:51.081Z,69.85
2022-10-05T23:22:20.927Z,70.10
2022-10-05T23:24:50.092Z,70.23
2022-10-05T23:27:20.881Z,70.27
2022-10-05T23:29:50.031Z,70.66
2022-10-05T23:32:19.182Z,70.59
2022-10-05T23:34:48.409Z,70.93
2022-10-05T23:37:19.240Z,71.12
2022-10-05T23:39:48.463Z,71.21
2022-10-05T23:42:17.627Z,71.07
2022-10-05T23:44:48.219Z,71.59
2022-10-05T23:47:17.347Z,71.41
2022-10-05T23:49:46.430Z,71.32
2022-10-05T23:52:15.547Z,70.99
2022-10-05T23:54:44.835Z,71.25
2022-10-05T23:57:18.196Z,71.60
2022-10-05T23:59:50.347Z,71.73
